Flight Track Log - Related Links

Times and Time Zones

All times are in EDT time to prevent confusion due to time zone crossing. See the SKW5631 flight status page for this flight to view local times or setup timezone preferences in your user account.

Time Position Orientation Groundspeed Altitude Reporting Facility
EDT Latitude Longitude Course Direction KTS MPH feet Rate Location/Type
Sat 11:30:00 PM 37.3545 -122.0455 135° Southeast  Level Estimated
Sat 11:31:00 PM 37.2661 -121.9362 135° Southeast  Level Estimated
Sat 11:32:00 PM 37.1776 -121.8270 135° Southeast  Level Estimated
Sat 11:33:00 PM 37.0890 -121.7182 136° Southeast  Level Estimated
Sat 11:34:00 PM 37.0003 -121.6095 136° Southeast  Level Estimated
Sat 11:35:00 PM 36.9115 -121.5012 136° Southeast  Level Estimated
Sat 11:36:00 PM 36.8226 -121.3931 136° Southeast  Level Estimated
Sat 11:37:00 PM 36.7336 -121.2852 136° Southeast  Level Estimated
Sat 11:38:00 PM 36.6445 -121.1776 136° Southeast  Level Estimated
Sat 11:39:00 PM 36.5553 -121.0702 136° Southeast  Level Estimated
Sat 11:40:00 PM 36.4660 -120.9631 136° Southeast  Level Estimated
Sat 11:41:00 PM 36.3767 -120.8563 136° Southeast  Level Estimated
Sat 11:42:00 PM 36.2872 -120.7496 136° Southeast  Level Estimated
Sat 11:43:00 PM 36.1976 -120.6433 136° Southeast  Level Estimated
Sat 11:44:00 PM 36.1079 -120.5371 136° Southeast  Level Estimated
Sat 11:45:00 PM 36.0182 -120.4312 136° Southeast  Level Estimated
Sat 11:46:00 PM 35.9283 -120.3256 136° Southeast  Level Estimated
Sat 11:47:00 PM 35.8384 -120.2202 136° Southeast  Level Estimated
Sat 11:48:00 PM 35.7484 -120.1150 137° Southeast  Level Estimated
Sat 11:49:00 PM 35.6582 -120.0101 137° Southeast  Level Estimated
Sat 11:50:00 PM 35.5680 -119.9054 137° Southeast  Level Estimated
Sat 11:51:00 PM 35.4777 -119.8009 137° Southeast  Level Estimated
Sat 11:52:00 PM 35.3873 -119.6967 137° Southeast  Level Estimated
Sat 11:53:00 PM 35.2968 -119.5927 137° Southeast  Level Estimated
Sat 11:54:00 PM 35.2062 -119.4889 137° Southeast  Level Estimated
Sat 11:55:00 PM 35.1156 -119.3854 137° Southeast  Level Estimated
Sat 11:56:00 PM 35.0248 -119.2821 137° Southeast  Level Estimated
Sat 11:57:00 PM 34.9340 -119.1790 137° Southeast  Level Estimated
Sat 11:58:00 PM 34.8431 -119.0762 137° Southeast  Level Estimated
Sat 11:59:00 PM 34.7521 -118.9736 137° Southeast  Level Estimated
Sun 12:00:00 AM 34.6610 -118.8712 137° Southeast  Level Estimated
Sun 12:01:00 AM 34.5698 -118.7690 137° Southeast  Level Estimated
Sun 12:02:00 AM 34.4785 -118.6671 137° Southeast  Level Estimated
Sun 12:03:00 AM 34.3872 -118.5654 137° Southeast  Level Estimated
Sun 12:04:00 AM 34.2957 -118.4639 137° Southeast  Level Estimated
Sun 12:05:00 AM 34.2042 -118.3626 138° Southeast  Level Estimated
Sun 12:06:00 AM 34.2007 -118.3587 138° Southeast  Level Estimated
Sun 12:07:00 AM 34.2007 -118.3587 140° Southeast  Level Estimated
Sun 12:08:00 AM 34.2007 -118.3587 140° Southeast  Level Estimated
Sun 12:09:00 AM 34.2007 -118.3587 140° Southeast  Level Estimated
Sun 12:10:00 AM 34.2007 -118.3587 140° Southeast  Level Estimated
Sun 12:11:00 AM 34.2007 -118.3587 140° Southeast  Level Estimated
Sun 12:12:00 AM 34.2007 -118.3587 140° Southeast  Level Estimated
Sun 12:13:00 AM 34.2007 -118.3587 140° Southeast  Level Estimated
Sun 12:14:00 AM 34.2007 -118.3587 140° Southeast  Level Estimated
Sun 12:15:00 AM 34.2007 -118.3587 140° Southeast  Level Estimated
Sun 12:16:00 AM 34.2007 -118.3587 140° Southeast  Level Estimated
Sun 12:17:00 AM 34.2007 -118.3587 140° Southeast  Level Estimated
Sun 12:18:00 AM 34.2007 -118.3587 140° Southeast  Level Estimated
Sun 12:19:00 AM 34.2007 -118.3587 140° Southeast  Level Estimated
Sun 12:20:00 AM 34.2007 -118.3587 140° Southeast  Level Estimated
Sun 12:21:00 AM 34.2007 -118.3587 140° Southeast  Level Estimated

Login

Don't have an account? Register now (free) for customized features, flight alerts, and more!